createdAt,value
2019-05-21T00:00:32.415Z,11.80
2019-05-21T00:03:01.737Z,11.70
2019-05-21T00:05:31.358Z,11.70
2019-05-21T00:08:00.968Z,11.80
2019-05-21T00:10:30.287Z,11.80
2019-05-21T00:12:59.868Z,11.70
2019-05-21T00:15:29.661Z,11.70
2019-05-21T00:17:58.991Z,11.70
2019-05-21T00:20:28.622Z,11.60
2019-05-21T00:22:57.929Z,11.60
2019-05-21T00:25:27.251Z,11.60
2019-05-21T00:28:36.088Z,11.70
2019-05-21T00:31:59.950Z,11.60
2019-05-21T00:35:25.251Z,11.50
2019-05-21T00:38:51.937Z,11.50
2019-05-21T00:42:05.189Z,11.60
2019-05-21T00:44:45.023Z,11.50
2019-05-21T00:47:14.762Z,11.50
2019-05-21T00:49:44.060Z,11.60
2019-05-21T00:52:13.199Z,11.60
2019-05-21T00:54:42.509Z,11.50
2019-05-21T00:57:11.996Z,11.50
2019-05-21T00:59:41.252Z,11.50
2019-05-21T01:02:10.584Z,11.50
2019-05-21T01:04:39.894Z,11.50
2019-05-21T01:07:09.551Z,11.50
2019-05-21T01:09:38.866Z,11.50
2019-05-21T01:12:08.188Z,11.50
2019-05-21T01:14:37.490Z,11.50
2019-05-21T01:17:06.867Z,11.50
2019-05-21T01:19:36.462Z,11.50
2019-05-21T01:22:05.865Z,11.50
2019-05-21T01:24:35.166Z,11.50
2019-05-21T01:27:05.182Z,11.50
2019-05-21T01:31:02.621Z,11.50
2019-05-21T01:33:31.919Z,11.50
2019-05-21T01:36:01.561Z,11.50
2019-05-21T01:38:30.891Z,11.40
2019-05-21T01:41:00.244Z,11.50
2019-05-21T01:43:29.864Z,11.40
2019-05-21T01:45:59.176Z,11.40
2019-05-21T01:48:28.497Z,11.40
2019-05-21T01:50:57.823Z,11.50
2019-05-21T01:53:27.377Z,11.50
2019-05-21T01:55:56.687Z,11.50
2019-05-21T01:58:26.015Z,11.50
2019-05-21T02:00:55.321Z,11.50
2019-05-21T02:03:24.659Z,11.50
2019-05-21T02:05:54.572Z,11.50
2019-05-21T02:08:23.903Z,11.50
2019-05-21T02:10:53.948Z,11.50
2019-05-21T02:13:23.267Z,11.50
2019-05-21T02:15:52.600Z,11.50
2019-05-21T02:18:22.215Z,11.50
2019-05-21T02:20:51.531Z,11.40
2019-05-21T02:23:20.894Z,11.50
2019-05-21T02:25:50.189Z,11.50
2019-05-21T02:28:19.831Z,11.50
2019-05-21T02:30:49.185Z,11.40
2019-05-21T02:33:18.483Z,11.50
2019-05-21T02:35:54.253Z,11.40
2019-05-21T02:38:18.856Z,11.50
2019-05-21T02:40:48.230Z,11.50
2019-05-21T02:43:17.549Z,11.50
2019-05-21T02:45:46.922Z,11.50
2019-05-21T02:48:16.486Z,11.50
2019-05-21T02:50:45.895Z,11.50
2019-05-21T02:53:15.198Z,11.50
2019-05-21T02:55:44.764Z,11.50
2019-05-21T02:58:14.165Z,11.50
2019-05-21T03:00:45.819Z,11.50
2019-05-21T03:03:16.788Z,11.50
2019-05-21T03:05:46.172Z,11.50
2019-05-21T03:08:15.431Z,11.50
2019-05-21T03:10:44.999Z,11.50
2019-05-21T03:13:14.312Z,11.50
2019-05-21T03:15:43.642Z,11.50
2019-05-21T03:18:14.593Z,11.50
2019-05-21T03:20:45.446Z,11.50
2019-05-21T03:23:15.078Z,11.50
2019-05-21T03:25:44.684Z,11.50
2019-05-21T03:28:14.006Z,11.50
2019-05-21T03:30:43.309Z,11.50
2019-05-21T03:33:12.904Z,11.50
2019-05-21T03:35:42.265Z,11.60
2019-05-21T03:38:11.537Z,11.50
2019-05-21T03:40:40.984Z,11.50
2019-05-21T03:43:10.318Z,11.50
2019-05-21T03:45:39.642Z,11.50
2019-05-21T03:48:08.982Z,11.50
2019-05-21T03:50:38.301Z,11.50
2019-05-21T03:53:07.601Z,11.50
2019-05-21T03:55:36.918Z,11.50
2019-05-21T03:58:06.513Z,11.50
2019-05-21T04:00:35.892Z,11.60
2019-05-21T04:03:05.935Z,11.50
2019-05-21T04:05:35.245Z,11.60
2019-05-21T04:08:04.841Z,11.60
2019-05-21T04:10:34.437Z,11.60
2019-05-21T04:13:07.286Z,11.60
2019-05-21T04:15:56.362Z,11.60
2019-05-21T04:18:42.268Z,11.60
2019-05-21T04:21:11.594Z,11.60
2019-05-21T04:23:40.901Z,11.70
2019-05-21T04:26:10.482Z,11.70
2019-05-21T04:28:39.787Z,11.70
2019-05-21T04:31:09.145Z,11.70
2019-05-21T04:33:38.465Z,11.70
2019-05-21T04:36:08.165Z,11.70
2019-05-21T04:38:37.454Z,11.70
2019-05-21T04:41:06.814Z,11.80
2019-05-21T04:43:36.161Z,11.80
2019-05-21T04:46:06.573Z,11.80
2019-05-21T04:48:35.892Z,11.80
2019-05-21T04:51:05.224Z,11.80
2019-05-21T04:53:34.538Z,11.80
2019-05-21T04:56:04.150Z,11.80
2019-05-21T04:58:33.471Z,11.80
2019-05-21T05:01:02.773Z,11.80
2019-05-21T05:03:32.090Z,11.80
2019-05-21T05:06:01.639Z,11.80
2019-05-21T05:08:32.509Z,11.80
2019-05-21T05:11:01.818Z,11.80
2019-05-21T05:13:31.193Z,11.80
2019-05-21T05:16:03.946Z,11.80
2019-05-21T05:18:31.822Z,11.80
2019-05-21T05:21:01.530Z,11.80
2019-05-21T05:23:30.865Z,11.80
2019-05-21T05:26:03.748Z,11.80
2019-05-21T05:28:33.349Z,11.90
2019-05-21T05:35:02.293Z,11.90
2019-05-21T05:37:43.374Z,11.90
2019-05-21T05:40:04.333Z,11.90
2019-05-21T05:42:33.951Z,11.80
2019-05-21T05:45:05.022Z,11.80
2019-05-21T05:47:34.581Z,11.80
2019-05-21T05:50:08.286Z,11.80
2019-05-21T05:52:37.611Z,11.80
2019-05-21T05:55:08.454Z,11.80
2019-05-21T05:57:37.758Z,11.80
2019-05-21T06:00:10.962Z,11.80
2019-05-21T06:02:40.340Z,11.80
2019-05-21T06:05:10.961Z,11.80
2019-05-21T06:07:40.552Z,11.90
2019-05-21T06:10:10.395Z,11.90
2019-05-21T06:12:39.675Z,11.80
2019-05-21T06:15:09.139Z,11.70
2019-05-21T06:17:38.456Z,11.70
2019-05-21T06:20:09.176Z,11.60
2019-05-21T06:22:38.699Z,11.50
2019-05-21T06:25:10.134Z,11.60
2019-05-21T06:27:39.515Z,11.50
2019-05-21T06:30:10.055Z,11.60
2019-05-21T06:32:39.357Z,11.50
2019-05-21T06:35:08.821Z,11.50
2019-05-21T06:37:38.168Z,11.50
2019-05-21T06:40:08.618Z,11.50
2019-05-21T06:42:38.223Z,11.50
2019-05-21T06:45:08.850Z,11.60
2019-05-21T06:47:38.468Z,11.60
2019-05-21T06:50:07.995Z,11.60
2019-05-21T06:52:37.313Z,11.50
2019-05-21T06:55:07.282Z,11.40
2019-05-21T06:57:36.599Z,11.30
2019-05-21T07:00:09.791Z,11.40
2019-05-21T07:02:39.104Z,11.40
2019-05-21T07:05:08.886Z,11.30
2019-05-21T07:07:38.199Z,11.40
2019-05-21T07:10:08.818Z,11.40
2019-05-21T07:12:38.151Z,11.40
2019-05-21T07:15:09.370Z,11.50
2019-05-21T07:17:39.586Z,11.40
2019-05-21T07:20:10.215Z,11.40
2019-05-21T07:22:39.657Z,11.50
2019-05-21T07:25:11.240Z,11.50
2019-05-21T07:27:40.537Z,11.40
2019-05-21T07:30:10.384Z,11.50
2019-05-21T07:32:39.991Z,11.50
2019-05-21T07:35:09.628Z,11.40
2019-05-21T07:37:39.226Z,11.40
2019-05-21T07:40:10.638Z,11.50
2019-05-21T07:42:40.267Z,11.50
2019-05-21T07:45:10.430Z,11.50
2019-05-21T07:47:39.730Z,11.50
2019-05-21T07:50:09.648Z,11.50
2019-05-21T07:52:39.221Z,11.60
2019-05-21T07:55:08.881Z,11.60
2019-05-21T07:57:38.537Z,11.60
2019-05-21T08:00:09.262Z,11.60
2019-05-21T08:02:38.604Z,11.60
2019-05-21T08:05:08.366Z,11.50
2019-05-21T08:07:37.971Z,11.50
2019-05-21T08:10:09.072Z,11.50
2019-05-21T08:12:39.986Z,11.40
2019-05-21T08:15:11.602Z,11.50
2019-05-21T08:17:40.885Z,11.50
2019-05-21T08:20:12.302Z,11.50
2019-05-21T08:22:41.714Z,11.60
2019-05-21T08:25:14.557Z,11.60
2019-05-21T08:27:42.627Z,11.50
2019-05-21T08:30:12.279Z,11.60
2019-05-21T08:32:41.611Z,11.60
2019-05-21T08:35:11.087Z,11.60
2019-05-21T08:37:40.391Z,11.70
2019-05-21T08:40:11.266Z,11.60
2019-05-21T08:42:40.597Z,11.60
2019-05-21T08:45:12.379Z,11.60
2019-05-21T08:47:41.935Z,11.60
2019-05-21T08:50:12.272Z,11.70
2019-05-21T08:52:41.864Z,11.60
2019-05-21T08:55:11.955Z,11.70
2019-05-21T08:57:41.499Z,11.60
2019-05-21T09:00:17.803Z,11.70
2019-05-21T09:02:47.101Z,11.70
2019-05-21T09:05:16.917Z,11.70
2019-05-21T09:07:52.632Z,11.70
2019-05-21T09:10:18.122Z,11.80
2019-05-21T09:12:47.737Z,11.70
2019-05-21T09:15:17.886Z,11.70
2019-05-21T09:17:47.277Z,11.70
2019-05-21T09:20:18.627Z,11.70
2019-05-21T09:22:48.236Z,11.70
2019-05-21T09:25:17.992Z,11.70
2019-05-21T09:27:50.268Z,11.70
2019-05-21T09:30:20.367Z,11.70
2019-05-21T09:32:49.741Z,11.70
2019-05-21T09:35:19.188Z,11.70
2019-05-21T09:37:48.820Z,11.80
2019-05-21T09:40:21.885Z,11.70
2019-05-21T09:42:51.479Z,11.80
2019-05-21T09:45:21.963Z,11.80
2019-05-21T09:47:51.768Z,11.80
2019-05-21T09:50:21.602Z,11.90
2019-05-21T09:52:51.370Z,11.90
2019-05-21T09:55:20.862Z,11.80
2019-05-21T09:57:57.766Z,11.90
2019-05-21T10:00:30.358Z,11.90
2019-05-21T10:02:59.676Z,11.90
2019-05-21T10:05:41.423Z,11.90
2019-05-21T10:08:10.811Z,11.90
2019-05-21T10:10:40.131Z,11.90
2019-05-21T10:13:09.756Z,12.00
2019-05-21T10:15:39.113Z,12.00
2019-05-21T10:18:08.409Z,12.00
2019-05-21T10:20:37.717Z,12.00
2019-05-21T10:23:07.047Z,12.00
2019-05-21T10:25:36.433Z,11.90
2019-05-21T10:28:05.774Z,11.90
2019-05-21T10:30:35.163Z,11.90
2019-05-21T10:33:04.864Z,11.80
2019-05-21T10:35:34.237Z,11.80
2019-05-21T10:38:04.115Z,11.90
2019-05-21T10:40:35.054Z,11.90
2019-05-21T10:43:04.621Z,11.90
2019-05-21T10:45:33.979Z,11.90
2019-05-21T10:48:03.377Z,11.90
2019-05-21T10:50:32.860Z,12.00
2019-05-21T10:53:02.152Z,12.00
2019-05-21T10:55:31.738Z,11.90
2019-05-21T10:58:01.443Z,11.90
2019-05-21T11:00:31.506Z,11.90
2019-05-21T11:03:13.818Z,11.90
2019-05-21T11:05:45.173Z,12.00
2019-05-21T11:08:23.956Z,12.00
2019-05-21T11:10:47.595Z,12.00
2019-05-21T11:13:17.417Z,12.00
2019-05-21T11:15:46.819Z,12.00
2019-05-21T11:18:16.321Z,12.00
2019-05-21T11:20:45.670Z,12.10
2019-05-21T11:23:15.167Z,12.10
2019-05-21T11:25:44.475Z,12.10
2019-05-21T11:28:13.871Z,12.10
2019-05-21T11:30:43.357Z,12.10
2019-05-21T11:33:12.708Z,12.10
2019-05-21T11:35:42.037Z,12.10
2019-05-21T11:38:11.658Z,12.10
2019-05-21T11:40:41.005Z,12.10
2019-05-21T11:43:10.608Z,12.10
2019-05-21T11:45:39.923Z,12.20
2019-05-21T11:48:09.319Z,12.20
2019-05-21T11:50:38.624Z,12.10
2019-05-21T11:53:08.268Z,12.10
2019-05-21T11:55:37.612Z,12.10
2019-05-21T11:58:06.953Z,12.20
2019-05-21T12:00:36.880Z,12.20
2019-05-21T12:03:06.594Z,12.30
2019-05-21T12:05:35.960Z,12.30
2019-05-21T12:08:05.288Z,12.40
2019-05-21T12:10:34.678Z,12.40
2019-05-21T12:13:04.322Z,12.40
2019-05-21T12:15:33.962Z,12.40
2019-05-21T12:18:03.324Z,12.30
2019-05-21T12:20:36.831Z,12.30
2019-05-21T12:23:03.725Z,12.40
2019-05-21T12:25:33.043Z,12.40
2019-05-21T12:28:02.661Z,12.30
2019-05-21T12:30:32.194Z,12.30
2019-05-21T12:33:01.488Z,12.30
2019-05-21T12:35:33.230Z,12.30
2019-05-21T12:38:02.521Z,12.30
2019-05-21T12:40:31.833Z,12.30
2019-05-21T12:43:01.438Z,12.30
2019-05-21T12:45:30.750Z,12.40
2019-05-21T12:48:00.070Z,12.30
2019-05-21T12:50:29.649Z,12.30
2019-05-21T12:52:58.975Z,12.30
2019-05-21T12:55:29.581Z,12.30
2019-05-21T12:57:59.177Z,12.40
2019-05-21T13:00:34.723Z,12.40
2019-05-21T13:03:04.581Z,12.40
2019-05-21T13:05:34.165Z,12.40
2019-05-21T13:08:07.771Z,12.40
2019-05-21T13:10:37.138Z,12.40
2019-05-21T13:13:07.323Z,12.40
2019-05-21T13:15:36.988Z,12.50
2019-05-21T13:18:06.544Z,12.50
2019-05-21T13:20:35.864Z,12.40
2019-05-21T13:23:05.642Z,12.40
2019-05-21T13:25:36.301Z,12.40
2019-05-21T13:28:06.335Z,12.50
2019-05-21T13:30:35.665Z,12.50
2019-05-21T13:33:05.507Z,12.30
2019-05-21T13:35:34.807Z,12.20
2019-05-21T13:38:04.703Z,12.20
2019-05-21T13:40:35.989Z,12.20
2019-05-21T13:43:06.151Z,12.20
2019-05-21T13:45:35.466Z,12.20
2019-05-21T13:48:04.859Z,12.20
2019-05-21T13:50:34.264Z,12.20
2019-05-21T13:53:03.638Z,12.30
2019-05-21T13:55:35.959Z,12.20
2019-05-21T13:58:06.116Z,12.10
2019-05-21T14:00:49.626Z,12.20
2019-05-21T14:03:18.943Z,12.10
2019-05-21T14:05:48.610Z,12.10
2019-05-21T14:08:18.598Z,12.10
2019-05-21T14:10:48.533Z,12.10
2019-05-21T14:13:17.995Z,12.20
2019-05-21T14:15:47.621Z,12.10
2019-05-21T14:18:17.341Z,12.20
2019-05-21T14:20:46.756Z,12.20
2019-05-21T14:23:16.088Z,12.20
2019-05-21T14:25:45.397Z,12.30
2019-05-21T14:28:14.707Z,12.30
2019-05-21T14:30:44.023Z,12.30
2019-05-21T14:33:13.396Z,12.30
2019-05-21T14:35:42.753Z,12.20
2019-05-21T14:38:12.349Z,12.30
2019-05-21T14:40:41.956Z,12.30
2019-05-21T14:43:11.278Z,12.30
2019-05-21T14:45:40.594Z,12.30
2019-05-21T14:48:10.226Z,12.40
2019-05-21T14:50:39.770Z,12.40
2019-05-21T14:53:09.258Z,12.40
2019-05-21T14:55:38.601Z,12.40
2019-05-21T14:58:07.917Z,12.50
2019-05-21T15:00:37.961Z,12.50
2019-05-21T15:03:07.300Z,12.40
2019-05-21T15:05:37.025Z,12.40
2019-05-21T15:08:06.929Z,12.40
2019-05-21T15:10:47.796Z,12.40
2019-05-21T15:13:07.403Z,12.40
2019-05-21T15:15:36.787Z,12.40
2019-05-21T15:18:06.613Z,12.40
2019-05-21T15:20:40.597Z,12.40
2019-05-21T15:23:09.927Z,12.50
2019-05-21T15:25:39.616Z,12.40
2019-05-21T15:28:08.935Z,12.50
2019-05-21T15:30:38.431Z,12.50
2019-05-21T15:33:07.755Z,12.50
2019-05-21T15:35:37.404Z,12.50
2019-05-21T15:38:07.109Z,12.50
2019-05-21T15:40:36.496Z,12.50
2019-05-21T15:43:05.838Z,12.50
2019-05-21T15:45:35.512Z,12.50
2019-05-21T15:48:04.908Z,12.60
2019-05-21T15:50:34.539Z,12.50
2019-05-21T15:53:04.342Z,12.60
2019-05-21T15:55:34.613Z,12.50
2019-05-21T15:58:04.277Z,12.60
2019-05-21T16:00:34.197Z,12.60
2019-05-21T16:03:03.848Z,12.60
2019-05-21T16:05:33.640Z,12.60
2019-05-21T16:08:03.052Z,12.60
2019-05-21T16:10:32.380Z,12.60
2019-05-21T16:13:02.041Z,12.60
2019-05-21T16:15:31.690Z,12.60
2019-05-21T16:18:01.013Z,12.60
2019-05-21T16:20:30.404Z,12.60
2019-05-21T16:22:59.746Z,12.60
2019-05-21T16:25:29.355Z,12.60
2019-05-21T16:27:58.675Z,12.70
2019-05-21T16:30:28.074Z,12.70
2019-05-21T16:32:57.407Z,12.60
2019-05-21T16:35:27.340Z,12.60
2019-05-21T16:37:56.667Z,12.60
2019-05-21T16:40:26.289Z,12.70
2019-05-21T16:42:55.614Z,12.70
2019-05-21T16:45:25.008Z,12.70
2019-05-21T16:47:55.311Z,12.70
2019-05-21T16:50:24.621Z,12.70
2019-05-21T16:52:54.002Z,12.70
2019-05-21T16:55:23.587Z,12.70
2019-05-21T16:57:56.148Z,12.70
2019-05-21T17:00:26.757Z,12.80
2019-05-21T17:02:56.077Z,12.70
2019-05-21T17:05:25.723Z,12.70
2019-05-21T17:07:55.334Z,12.70
2019-05-21T17:10:24.725Z,12.80
2019-05-21T17:12:54.346Z,12.80
2019-05-21T17:15:23.656Z,12.80
2019-05-21T17:17:53.201Z,12.80
2019-05-21T17:20:22.516Z,12.80
2019-05-21T17:22:51.832Z,12.90
2019-05-21T17:25:21.148Z,12.90
2019-05-21T17:27:50.662Z,12.80
2019-05-21T17:30:21.166Z,12.90
2019-05-21T17:32:50.483Z,12.90
2019-05-21T17:35:20.088Z,12.90
2019-05-21T17:37:49.401Z,12.90
2019-05-21T17:40:21.483Z,12.90
2019-05-21T17:43:04.252Z,12.90
2019-05-21T17:45:37.929Z,12.90
2019-05-21T17:48:07.243Z,12.90
2019-05-21T17:50:36.880Z,12.90
2019-05-21T17:53:06.262Z,12.90
2019-05-21T17:55:36.667Z,12.90
2019-05-21T17:58:06.019Z,12.90
2019-05-21T18:00:37.151Z,12.90
2019-05-21T18:03:06.863Z,12.90
2019-05-21T18:05:36.352Z,12.90
2019-05-21T18:08:06.101Z,12.90
2019-05-21T18:10:35.778Z,12.90
2019-05-21T18:13:06.025Z,12.90
2019-05-21T18:15:36.435Z,12.90
2019-05-21T18:18:08.803Z,12.90
2019-05-21T18:20:39.079Z,12.90
2019-05-21T18:23:09.588Z,12.90
2019-05-21T18:25:39.267Z,12.90
2019-05-21T18:28:08.584Z,12.90
2019-05-21T18:30:38.382Z,12.90
2019-05-21T18:33:07.751Z,12.90
2019-05-21T18:35:37.136Z,12.80
2019-05-21T18:38:06.435Z,12.90
2019-05-21T18:40:35.821Z,12.80
2019-05-21T18:43:05.393Z,12.80
2019-05-21T18:45:35.943Z,12.80
2019-05-21T18:48:07.194Z,12.80
2019-05-21T18:50:37.249Z,12.80
2019-05-21T18:53:10.856Z,12.80
2019-05-21T18:55:43.203Z,12.70
2019-05-21T18:58:17.463Z,12.70
2019-05-21T19:00:47.500Z,12.70
2019-05-21T19:03:25.356Z,12.70
2019-05-21T19:05:52.995Z,12.70
2019-05-21T19:08:26.292Z,12.60
2019-05-21T19:11:04.968Z,12.60
2019-05-21T19:13:40.719Z,12.60
2019-05-21T19:16:11.845Z,12.60
2019-05-21T19:18:41.366Z,12.60
2019-05-21T19:21:14.975Z,12.50
2019-05-21T19:23:46.211Z,12.50
2019-05-21T19:26:15.800Z,12.50
2019-05-21T19:28:47.071Z,12.50
2019-05-21T19:31:21.257Z,12.50
2019-05-21T19:33:52.152Z,12.50
2019-05-21T19:36:23.223Z,12.40
2019-05-21T19:38:54.334Z,12.50
2019-05-21T19:41:31.420Z,12.40
2019-05-21T19:44:02.386Z,12.50
2019-05-21T19:46:44.586Z,12.40
2019-05-21T19:49:19.552Z,12.40
2019-05-21T19:51:51.963Z,12.40
2019-05-21T19:54:22.666Z,12.30
2019-05-21T19:56:51.991Z,12.20
2019-05-21T19:59:24.720Z,12.20
2019-05-21T20:02:02.297Z,12.20
2019-05-21T20:04:37.698Z,12.20
2019-05-21T20:07:17.556Z,12.20
2019-05-21T20:09:48.803Z,12.20
2019-05-21T20:12:18.137Z,12.20
2019-05-21T20:14:47.901Z,12.20
2019-05-21T20:17:18.111Z,12.20
2019-05-21T20:19:49.988Z,12.20
2019-05-21T20:22:20.139Z,12.10
2019-05-21T20:24:50.884Z,12.10
2019-05-21T20:27:20.472Z,12.00
2019-05-21T20:29:50.651Z,12.00
2019-05-21T20:32:21.538Z,12.00
2019-05-21T20:34:51.751Z,12.10
2019-05-21T20:37:22.812Z,12.00
2019-05-21T20:39:52.755Z,12.00
2019-05-21T20:42:25.441Z,12.00
2019-05-21T20:44:55.384Z,12.00
2019-05-21T20:47:24.762Z,12.00
2019-05-21T20:49:55.732Z,12.00
2019-05-21T20:52:25.776Z,12.00
2019-05-21T20:54:57.163Z,12.00
2019-05-21T20:57:27.102Z,12.00
2019-05-21T20:59:57.626Z,11.90
2019-05-21T21:02:28.434Z,11.90
2019-05-21T21:04:58.166Z,11.90
2019-05-21T21:07:27.653Z,11.90
2019-05-21T21:09:57.261Z,11.90
2019-05-21T21:12:27.807Z,11.90
2019-05-21T21:14:58.114Z,11.90
2019-05-21T21:17:27.800Z,11.90
2019-05-21T21:19:57.148Z,11.80
2019-05-21T21:22:26.478Z,11.80
2019-05-21T21:24:55.852Z,11.80
2019-05-21T21:27:27.288Z,11.80
2019-05-21T21:29:56.611Z,11.80
2019-05-21T21:32:26.937Z,11.80
2019-05-21T21:34:56.466Z,11.70
2019-05-21T21:37:26.140Z,11.70
2019-05-21T21:39:55.595Z,11.80
2019-05-21T21:42:25.356Z,11.80
2019-05-21T21:44:55.345Z,11.70
2019-05-21T21:47:25.993Z,11.70
2019-05-21T21:49:56.252Z,11.70
2019-05-21T21:52:26.401Z,11.70
2019-05-21T21:54:55.722Z,11.60
2019-05-21T21:57:25.042Z,11.60
2019-05-21T21:59:55.629Z,11.60
2019-05-21T22:02:31.048Z,11.50
2019-05-21T22:05:02.470Z,11.50
2019-05-21T22:07:35.407Z,11.40
2019-05-21T22:10:08.746Z,11.40
2019-05-21T22:12:38.435Z,11.40
2019-05-21T22:15:09.380Z,11.40
2019-05-21T22:17:38.990Z,11.40
2019-05-21T22:20:09.818Z,11.40
2019-05-21T22:22:39.833Z,11.40
2019-05-21T22:25:09.757Z,11.40
2019-05-21T22:27:39.660Z,11.40
2019-05-21T22:30:09.148Z,11.40
2019-05-21T22:32:38.778Z,11.40
2019-05-21T22:35:08.563Z,11.40
2019-05-21T22:37:37.950Z,11.40
2019-05-21T22:40:08.177Z,11.40
2019-05-21T22:42:37.963Z,11.40
2019-05-21T22:45:09.592Z,11.40
2019-05-21T22:47:38.908Z,11.50
2019-05-21T22:50:09.194Z,11.40
2019-05-21T22:52:38.577Z,11.40
2019-05-21T22:55:08.039Z,11.40
2019-05-21T22:57:37.889Z,11.40
2019-05-21T23:00:08.508Z,11.40
2019-05-21T23:02:39.530Z,11.40
2019-05-21T23:05:09.353Z,11.40
2019-05-21T23:07:38.692Z,11.30
2019-05-21T23:10:10.686Z,11.30
2019-05-21T23:12:41.201Z,11.30
2019-05-21T23:15:24.409Z,11.40
2019-05-21T23:17:45.051Z,11.30
2019-05-21T23:20:14.814Z,11.30
2019-05-21T23:22:44.914Z,11.30
2019-05-21T23:25:15.373Z,11.30
2019-05-21T23:27:45.293Z,11.30
2019-05-21T23:30:18.525Z,11.20
2019-05-21T23:32:48.545Z,11.20
2019-05-21T23:35:18.304Z,11.30
2019-05-21T23:37:51.932Z,11.20
2019-05-21T23:40:24.899Z,11.20
2019-05-21T23:42:57.147Z,11.20
2019-05-21T23:45:26.602Z,11.20
2019-05-21T23:47:55.989Z,11.20
2019-05-21T23:50:28.042Z,11.20
2019-05-21T23:52:59.323Z,11.20
2019-05-21T23:55:28.990Z,11.20
2019-05-21T23:57:59.106Z,11.20
